Thaani — HBY4477 — position and weather

sailwx.info

Track history (hours):
 
Tides and Currents Weather Stations Pressure Air Temp Water Temp Dewpoint Dewpoint Depression Visibility Wind Speed Wind Dir Waves Ship Positions

Thaani

Last reported at 2017-Jul-09 12:00 UTC. Time now 2017-Jul-28 04:45 UTC.
Position N 50°58' W 057°16'.
Warning: this ship's position is 18 days out of date.

Length 14 m.

Type: Pleasure craft. MMSI: 269102970.

Date/timePositionNaut miles runAvg speedWind from/ knotsBaromVisibWave heightAir tempDewpointWater temp
2017-Jul-09 12:00N 50°58' W 057°16'4 7.8
2017-Jul-09 11:30N 50°55' W 057°19'4 7.6
2017-Jul-09 11:00N 50°51' W 057°21'4 7.5
2017-Jul-09 10:30N 50°48' W 057°23'4 7.2
2017-Jul-09 10:00N 50°45' W 057°24'3 6.5
2017-Jul-09 09:29N 50°41' W 057°25'3 6.7
2017-Jul-09 09:00N 50°39' W 057°21'3 5.4
2017-Jul-09 08:30N 50°39' W 057°16'0 0.0
2017-Jul-08 18:02N 50°39' W 057°16'0 0.0
2017-Jul-08 17:58N 50°39' W 057°16'2 4.8
2017-Jul-08 17:27N 50°38' W 057°20'3 6.1
2017-Jul-08 16:57N 50°36' W 057°24'3 6.1
2017-Jul-08 16:27N 50°34' W 057°27'  
Track history (hours):
 
Tides and Currents Weather Stations Pressure Air Temp Water Temp Dewpoint Dewpoint Depression Visibility Wind Speed Wind Dir Waves Ship Positions

Thaani

Last reported at 2017-Jul-09 12:00 UTC. Time now 2017-Jul-28 04:45 UTC.
Position N 50°58' W 057°16'.
Warning: this ship's position is 18 days out of date.

Length 14 m.

Type: Pleasure craft. MMSI: 269102970.

Date/timePositionNaut miles runAvg speedWind from/ knotsBaromVisibWave heightAir tempDewpointWater temp
2017-Jul-09 12:00N 50°58' W 057°16'4 7.8
2017-Jul-09 11:30N 50°55' W 057°19'4 7.6
2017-Jul-09 11:00N 50°51' W 057°21'4 7.5
2017-Jul-09 10:30N 50°48' W 057°23'4 7.2
2017-Jul-09 10:00N 50°45' W 057°24'3 6.5
2017-Jul-09 09:29N 50°41' W 057°25'3 6.7
2017-Jul-09 09:00N 50°39' W 057°21'3 5.4
2017-Jul-09 08:30N 50°39' W 057°16'0 0.0
2017-Jul-08 18:02N 50°39' W 057°16'0 0.0
2017-Jul-08 17:58N 50°39' W 057°16'2 4.8
2017-Jul-08 17:27N 50°38' W 057°20'3 6.1
2017-Jul-08 16:57N 50°36' W 057°24'3 6.1
2017-Jul-08 16:27N 50°34' W 057°27'  

Dump ship's entire track history